sensor_id;sensor_type;location;lat;lon;timestamp;pressure;altitude;pressure_sealevel;temperature;humidity
55271;BME280;41132;47.162;9.470;2023-05-02T00:02:12;96702.13;;;10.81;100.00
55271;BME280;41132;47.162;9.470;2023-05-02T00:04:37;96701.16;;;10.82;100.00
55271;BME280;41132;47.162;9.470;2023-05-02T00:07:03;96699.31;;;10.74;100.00
55271;BME280;41132;47.162;9.470;2023-05-02T00:09:28;96706.72;;;10.79;100.00
55271;BME280;41132;47.162;9.470;2023-05-02T00:11:54;96698.16;;;10.77;100.00
55271;BME280;41132;47.162;9.470;2023-05-02T00:14:19;96689.19;;;10.87;100.00
55271;BME280;41132;47.162;9.470;2023-05-02T00:16:45;96678.66;;;10.79;100.00
55271;BME280;41132;47.162;9.470;2023-05-02T00:19:10;96709.94;;;10.91;100.00
55271;BME280;41132;47.162;9.470;2023-05-02T00:21:36;96699.88;;;10.86;100.00
55271;BME280;41132;47.162;9.470;2023-05-02T00:24:01;96679.78;;;10.77;100.00
55271;BME280;41132;47.162;9.470;2023-05-02T00:26:26;96694.91;;;10.83;100.00
55271;BME280;41132;47.162;9.470;2023-05-02T00:28:53;96686.91;;;10.84;100.00
55271;BME280;41132;47.162;9.470;2023-05-02T00:31:18;96697.50;;;10.75;100.00
55271;BME280;41132;47.162;9.470;2023-05-02T00:33:43;96688.34;;;10.79;100.00
55271;BME280;41132;47.162;9.470;2023-05-02T00:36:16;96695.75;;;10.83;100.00
55271;BME280;41132;47.162;9.470;2023-05-02T00:38:42;96672.19;;;10.74;100.00
55271;BME280;41132;47.162;9.470;2023-05-02T00:41:08;96683.59;;;10.82;100.00
55271;BME280;41132;47.162;9.470;2023-05-02T00:43:33;96680.25;;;10.72;100.00
55271;BME280;41132;47.162;9.470;2023-05-02T00:45:59;96686.69;;;10.78;100.00
55271;BME280;41132;47.162;9.470;2023-05-02T00:48:25;96675.47;;;10.68;100.00
55271;BME280;41132;47.162;9.470;2023-05-02T00:50:51;96678.59;;;10.71;100.00
55271;BME280;41132;47.162;9.470;2023-05-02T00:53:16;96674.53;;;10.77;100.00
55271;BME280;41132;47.162;9.470;2023-05-02T00:55:42;96670.44;;;10.74;100.00
55271;BME280;41132;47.162;9.470;2023-05-02T00:58:11;96668.19;;;10.87;100.00
55271;BME280;41132;47.162;9.470;2023-05-02T01:03:40;96669.13;;;10.78;100.00
55271;BME280;41132;47.162;9.470;2023-05-02T01:09:41;96672.88;;;10.76;100.00
55271;BME280;41132;47.162;9.470;2023-05-02T01:14:44;96674.22;;;10.80;100.00
55271;BME280;41132;47.162;9.470;2023-05-02T01:17:13;96667.28;;;10.71;100.00
55271;BME280;41132;47.162;9.470;2023-05-02T01:19:42;96675.97;;;10.71;100.00
55271;BME280;41132;47.162;9.470;2023-05-02T01:22:10;96677.44;;;10.74;100.00
55271;BME280;41132;47.162;9.470;2023-05-02T01:25:01;96668.63;;;10.75;100.00
55271;BME280;41132;47.162;9.470;2023-05-02T01:27:50;96681.88;;;10.73;100.00
55271;BME280;41132;47.162;9.470;2023-05-02T01:30:21;96674.78;;;10.65;100.00
55271;BME280;41132;47.162;9.470;2023-05-02T01:32:48;96676.41;;;10.66;100.00
55271;BME280;41132;47.162;9.470;2023-05-02T01:35:17;96682.25;;;10.60;100.00
55271;BME280;41132;47.162;9.470;2023-05-02T01:37:45;96681.75;;;10.57;100.00
55271;BME280;41132;47.162;9.470;2023-05-02T01:40:16;96669.09;;;10.52;100.00
55271;BME280;41132;47.162;9.470;2023-05-02T01:42:43;96680.38;;;10.71;100.00
55271;BME280;41132;47.162;9.470;2023-05-02T01:45:11;96681.31;;;10.61;100.00
55271;BME280;41132;47.162;9.470;2023-05-02T01:47:37;96664.53;;;10.54;100.00
55271;BME280;41132;47.162;9.470;2023-05-02T01:50:06;96681.91;;;10.55;100.00
55271;BME280;41132;47.162;9.470;2023-05-02T01:52:32;96690.97;;;10.61;100.00
55271;BME280;41132;47.162;9.470;2023-05-02T01:54:59;96681.63;;;10.58;100.00
55271;BME280;41132;47.162;9.470;2023-05-02T01:57:25;96691.81;;;10.61;100.00
55271;BME280;41132;47.162;9.470;2023-05-02T01:59:54;96690.44;;;10.75;100.00
55271;BME280;41132;47.162;9.470;2023-05-02T02:02:22;96687.97;;;10.56;100.00
55271;BME280;41132;47.162;9.470;2023-05-02T02:04:49;96692.47;;;10.63;100.00
55271;BME280;41132;47.162;9.470;2023-05-02T02:07:16;96660.63;;;10.40;100.00
55271;BME280;41132;47.162;9.470;2023-05-02T02:09:41;96698.47;;;10.56;100.00
55271;BME280;41132;47.162;9.470;2023-05-02T02:14:55;96688.94;;;10.55;100.00
55271;BME280;41132;47.162;9.470;2023-05-02T02:17:26;96687.59;;;10.51;100.00
55271;BME280;41132;47.162;9.470;2023-05-02T02:19:55;96697.66;;;10.55;100.00
55271;BME280;41132;47.162;9.470;2023-05-02T02:22:22;96694.44;;;10.43;100.00
55271;BME280;41132;47.162;9.470;2023-05-02T02:24:51;96689.31;;;10.42;100.00
55271;BME280;41132;47.162;9.470;2023-05-02T02:27:18;96691.94;;;10.42;100.00
55271;BME280;41132;47.162;9.470;2023-05-02T02:29:43;96677.56;;;10.46;100.00
55271;BME280;41132;47.162;9.470;2023-05-02T02:32:09;96686.88;;;10.40;100.00
55271;BME280;41132;47.162;9.470;2023-05-02T02:34:35;96693.31;;;10.46;100.00
55271;BME280;41132;47.162;9.470;2023-05-02T02:37:13;96685.75;;;10.43;100.00
55271;BME280;41132;47.162;9.470;2023-05-02T02:39:57;96687.69;;;10.59;100.00
55271;BME280;41132;47.162;9.470;2023-05-02T02:42:34;96685.66;;;10.53;100.00
55271;BME280;41132;47.162;9.470;2023-05-02T02:45:16;96693.44;;;10.44;100.00
55271;BME280;41132;47.162;9.470;2023-05-02T02:47:55;96695.69;;;10.39;100.00
55271;BME280;41132;47.162;9.470;2023-05-02T02:53:26;96695.78;;;10.30;100.00
55271;BME280;41132;47.162;9.470;2023-05-02T02:56:00;96698.50;;;10.38;100.00
55271;BME280;41132;47.162;9.470;2023-05-02T03:01:14;96703.88;;;10.36;100.00
55271;BME280;41132;47.162;9.470;2023-05-02T03:03:43;96705.81;;;10.34;100.00
55271;BME280;41132;47.162;9.470;2023-05-02T03:06:09;96711.28;;;10.41;100.00
55271;BME280;41132;47.162;9.470;2023-05-02T03:08:38;96705.50;;;10.37;100.00
55271;BME280;41132;47.162;9.470;2023-05-02T03:11:05;96707.84;;;10.40;100.00
55271;BME280;41132;47.162;9.470;2023-05-02T03:13:30;96711.88;;;10.35;100.00
55271;BME280;41132;47.162;9.470;2023-05-02T03:18:44;96707.63;;;10.34;100.00
55271;BME280;41132;47.162;9.470;2023-05-02T03:21:09;96708.59;;;10.33;100.00
55271;BME280;41132;47.162;9.470;2023-05-02T03:23:35;96717.84;;;10.27;100.00
55271;BME280;41132;47.162;9.470;2023-05-02T03:26:01;96713.16;;;10.31;100.00
55271;BME280;41132;47.162;9.470;2023-05-02T03:28:27;96709.25;;;10.35;100.00
55271;BME280;41132;47.162;9.470;2023-05-02T03:30:52;96718.81;;;10.36;100.00
55271;BME280;41132;47.162;9.470;2023-05-02T03:33:17;96715.38;;;10.25;100.00
55271;BME280;41132;47.162;9.470;2023-05-02T03:35:43;96709.97;;;10.27;100.00
55271;BME280;41132;47.162;9.470;2023-05-02T03:38:08;96713.50;;;10.18;100.00
55271;BME280;41132;47.162;9.470;2023-05-02T03:40:34;96720.63;;;10.25;100.00
55271;BME280;41132;47.162;9.470;2023-05-02T03:42:59;96719.13;;;10.23;100.00
55271;BME280;41132;47.162;9.470;2023-05-02T03:45:25;96723.53;;;10.22;100.00
55271;BME280;41132;47.162;9.470;2023-05-02T03:47:50;96729.06;;;10.29;100.00
55271;BME280;41132;47.162;9.470;2023-05-02T03:50:16;96705.47;;;10.19;100.00
55271;BME280;41132;47.162;9.470;2023-05-02T03:52:41;96719.56;;;10.18;100.00
55271;BME280;41132;47.162;9.470;2023-05-02T03:55:06;96735.13;;;10.30;100.00
55271;BME280;41132;47.162;9.470;2023-05-02T03:57:32;96724.38;;;10.23;100.00
55271;BME280;41132;47.162;9.470;2023-05-02T03:59:57;96735.94;;;10.30;100.00
55271;BME280;41132;47.162;9.470;2023-05-02T04:02:23;96724.75;;;10.28;100.00
55271;BME280;41132;47.162;9.470;2023-05-02T04:04:49;96740.06;;;10.33;100.00
55271;BME280;41132;47.162;9.470;2023-05-02T04:07:14;96742.00;;;10.31;100.00
55271;BME280;41132;47.162;9.470;2023-05-02T04:09:43;96743.69;;;10.32;100.00
55271;BME280;41132;47.162;9.470;2023-05-02T04:12:09;96748.25;;;10.30;100.00
55271;BME280;41132;47.162;9.470;2023-05-02T04:14:34;96746.84;;;10.25;100.00
55271;BME280;41132;47.162;9.470;2023-05-02T04:17:00;96757.72;;;10.40;100.00
55271;BME280;41132;47.162;9.470;2023-05-02T04:19:25;96752.06;;;10.35;100.00
55271;BME280;41132;47.162;9.470;2023-05-02T04:21:51;96754.16;;;10.32;100.00
55271;BME280;41132;47.162;9.470;2023-05-02T04:24:16;96750.56;;;10.33;100.00
55271;BME280;41132;47.162;9.470;2023-05-02T04:26:42;96763.41;;;10.36;100.00
55271;BME280;41132;47.162;9.470;2023-05-02T04:29:07;96760.09;;;10.34;100.00
55271;BME280;41132;47.162;9.470;2023-05-02T04:31:33;96756.66;;;10.33;100.00
55271;BME280;41132;47.162;9.470;2023-05-02T04:33:59;96770.38;;;10.45;100.00
55271;BME280;41132;47.162;9.470;2023-05-02T04:36:24;96763.69;;;10.33;100.00
55271;BME280;41132;47.162;9.470;2023-05-02T04:38:53;96774.56;;;10.38;100.00
55271;BME280;41132;47.162;9.470;2023-05-02T04:41:18;96778.28;;;10.35;100.00
55271;BME280;41132;47.162;9.470;2023-05-02T04:43:44;96768.13;;;10.22;100.00
55271;BME280;41132;47.162;9.470;2023-05-02T04:46:09;96779.38;;;10.42;100.00
55271;BME280;41132;47.162;9.470;2023-05-02T04:48:35;96778.69;;;10.40;100.00
55271;BME280;41132;47.162;9.470;2023-05-02T04:51:00;96780.19;;;10.43;100.00
55271;BME280;41132;47.162;9.470;2023-05-02T04:53:26;96787.00;;;10.26;100.00
55271;BME280;41132;47.162;9.470;2023-05-02T04:55:52;96787.00;;;10.36;100.00
55271;BME280;41132;47.162;9.470;2023-05-02T04:58:17;96791.28;;;10.37;100.00
55271;BME280;41132;47.162;9.470;2023-05-02T05:00:42;96788.66;;;10.37;100.00
55271;BME280;41132;47.162;9.470;2023-05-02T05:03:08;96798.63;;;10.33;100.00
55271;BME280;41132;47.162;9.470;2023-05-02T05:05:33;96803.88;;;10.33;100.00
55271;BME280;41132;47.162;9.470;2023-05-02T05:07:59;96808.81;;;10.36;100.00
55271;BME280;41132;47.162;9.470;2023-05-02T05:10:24;96810.00;;;10.42;100.00
55271;BME280;41132;47.162;9.470;2023-05-02T05:12:49;96800.81;;;10.38;100.00
55271;BME280;41132;47.162;9.470;2023-05-02T05:15:15;96815.94;;;10.44;100.00
55271;BME280;41132;47.162;9.470;2023-05-02T05:17:41;96812.63;;;10.42;100.00
55271;BME280;41132;47.162;9.470;2023-05-02T05:20:07;96819.00;;;10.39;100.00
55271;BME280;41132;47.162;9.470;2023-05-02T05:22:40;96811.00;;;10.41;100.00
55271;BME280;41132;47.162;9.470;2023-05-02T05:25:07;96812.63;;;10.42;100.00
55271;BME280;41132;47.162;9.470;2023-05-02T05:27:33;96803.00;;;10.42;100.00
55271;BME280;41132;47.162;9.470;2023-05-02T05:29:59;96829.69;;;10.56;100.00
55271;BME280;41132;47.162;9.470;2023-05-02T05:32:24;96827.00;;;10.48;100.00
55271;BME280;41132;47.162;9.470;2023-05-02T05:34:51;96824.06;;;10.51;100.00
55271;BME280;41132;47.162;9.470;2023-05-02T05:37:17;96818.97;;;10.49;100.00
55271;BME280;41132;47.162;9.470;2023-05-02T05:39:43;96836.28;;;10.60;100.00
55271;BME280;41132;47.162;9.470;2023-05-02T05:42:08;96835.34;;;10.61;100.00
55271;BME280;41132;47.162;9.470;2023-05-02T05:44:34;96829.09;;;10.62;100.00
55271;BME280;41132;47.162;9.470;2023-05-02T05:47:00;96850.34;;;10.69;100.00
55271;BME280;41132;47.162;9.470;2023-05-02T06:19:07;96863.84;;;10.74;100.00
55271;BME280;41132;47.162;9.470;2023-05-02T06:21:35;96876.25;;;10.81;100.00
55271;BME280;41132;47.162;9.470;2023-05-02T06:24:01;96872.50;;;10.84;100.00
55271;BME280;41132;47.162;9.470;2023-05-02T06:26:26;96877.81;;;10.92;100.00
55271;BME280;41132;47.162;9.470;2023-05-02T06:28:56;96869.28;;;10.90;100.00
55271;BME280;41132;47.162;9.470;2023-05-02T06:31:21;96884.06;;;11.09;100.00
55271;BME280;41132;47.162;9.470;2023-05-02T06:33:47;96893.66;;;11.00;100.00
55271;BME280;41132;47.162;9.470;2023-05-02T06:36:12;96890.59;;;11.05;100.00
55271;BME280;41132;47.162;9.470;2023-05-02T06:38:38;96890.22;;;11.00;100.00
55271;BME280;41132;47.162;9.470;2023-05-02T06:41:03;96882.63;;;10.97;100.00
55271;BME280;41132;47.162;9.470;2023-05-02T06:43:28;96902.91;;;11.04;100.00
55271;BME280;41132;47.162;9.470;2023-05-02T06:45:54;96904.41;;;11.07;100.00
55271;BME280;41132;47.162;9.470;2023-05-02T06:48:20;96892.53;;;11.03;100.00
55271;BME280;41132;47.162;9.470;2023-05-02T06:50:46;96908.09;;;11.14;100.00
55271;BME280;41132;47.162;9.470;2023-05-02T06:53:12;96907.38;;;10.94;100.00
55271;BME280;41132;47.162;9.470;2023-05-02T06:55:37;96917.84;;;11.04;100.00
55271;BME280;41132;47.162;9.470;2023-05-02T06:58:02;96912.63;;;10.94;100.00
55271;BME280;41132;47.162;9.470;2023-05-02T07:00:28;96918.66;;;11.04;100.00
55271;BME280;41132;47.162;9.470;2023-05-02T07:02:53;96909.88;;;10.96;100.00
55271;BME280;41132;47.162;9.470;2023-05-02T07:05:19;96914.75;;;10.91;100.00
55271;BME280;41132;47.162;9.470;2023-05-02T07:07:44;96924.03;;;10.85;100.00
55271;BME280;41132;47.162;9.470;2023-05-02T07:10:10;96930.41;;;10.82;100.00
55271;BME280;41132;47.162;9.470;2023-05-02T07:12:36;96939.09;;;10.83;100.00
55271;BME280;41132;47.162;9.470;2023-05-02T07:15:04;96916.44;;;10.82;100.00
55271;BME280;41132;47.162;9.470;2023-05-02T07:17:30;96944.47;;;10.91;100.00
55271;BME280;41132;47.162;9.470;2023-05-02T07:19:56;96917.34;;;10.73;100.00
55271;BME280;41132;47.162;9.470;2023-05-02T07:22:22;96928.28;;;10.68;100.00
55271;BME280;41132;47.162;9.470;2023-05-02T07:24:47;96937.75;;;10.79;100.00
55271;BME280;41132;47.162;9.470;2023-05-02T07:27:12;96934.28;;;10.78;100.00
55271;BME280;41132;47.162;9.470;2023-05-02T07:29:38;96924.22;;;10.74;100.00
55271;BME280;41132;47.162;9.470;2023-05-02T07:32:04;96907.13;;;10.70;100.00
55271;BME280;41132;47.162;9.470;2023-05-02T07:34:30;96937.34;;;10.74;100.00
55271;BME280;41132;47.162;9.470;2023-05-02T07:36:57;96940.28;;;10.71;100.00
55271;BME280;41132;47.162;9.470;2023-05-02T07:39:24;96945.09;;;10.75;100.00
55271;BME280;41132;47.162;9.470;2023-05-02T07:41:53;96932.72;;;10.58;100.00
55271;BME280;41132;47.162;9.470;2023-05-02T07:44:19;96907.66;;;10.45;100.00
55271;BME280;41132;47.162;9.470;2023-05-02T07:46:45;96940.84;;;10.64;100.00
55271;BME280;41132;47.162;9.470;2023-05-02T07:49:11;96938.97;;;10.84;100.00
55271;BME280;41132;47.162;9.470;2023-05-02T07:51:36;96925.00;;;10.84;100.00
55271;BME280;41132;47.162;9.470;2023-05-02T07:54:17;96933.06;;;11.00;100.00
55271;BME280;41132;47.162;9.470;2023-05-02T07:56:43;96939.31;;;10.99;100.00
55271;BME280;41132;47.162;9.470;2023-05-02T07:59:08;96938.31;;;11.00;100.00
55271;BME280;41132;47.162;9.470;2023-05-02T08:01:34;96930.31;;;11.02;100.00
55271;BME280;41132;47.162;9.470;2023-05-02T08:03:59;96933.31;;;11.07;100.00
55271;BME280;41132;47.162;9.470;2023-05-02T08:06:25;96941.97;;;11.17;100.00
55271;BME280;41132;47.162;9.470;2023-05-02T08:08:50;96938.56;;;11.07;100.00
55271;BME280;41132;47.162;9.470;2023-05-02T08:11:16;96943.06;;;11.15;100.00
55271;BME280;41132;47.162;9.470;2023-05-02T08:13:41;96933.31;;;11.25;100.00
55271;BME280;41132;47.162;9.470;2023-05-02T08:16:06;96945.44;;;11.36;100.00
55271;BME280;41132;47.162;9.470;2023-05-02T08:18:32;96948.53;;;11.21;100.00
55271;BME280;41132;47.162;9.470;2023-05-02T08:20:58;96954.13;;;11.36;100.00
55271;BME280;41132;47.162;9.470;2023-05-02T08:23:23;96950.38;;;11.39;100.00
55271;BME280;41132;47.162;9.470;2023-05-02T08:25:49;96953.53;;;11.42;100.00
55271;BME280;41132;47.162;9.470;2023-05-02T08:28:14;96964.88;;;11.43;100.00
55271;BME280;41132;47.162;9.470;2023-05-02T08:30:40;96948.19;;;11.34;100.00
55271;BME280;41132;47.162;9.470;2023-05-02T08:33:05;96955.69;;;11.29;100.00
55271;BME280;41132;47.162;9.470;2023-05-02T08:35:31;96953.22;;;11.45;100.00
55271;BME280;41132;47.162;9.470;2023-05-02T08:37:56;96955.50;;;11.40;100.00
55271;BME280;41132;47.162;9.470;2023-05-02T08:40:22;96960.75;;;11.40;100.00
55271;BME280;41132;47.162;9.470;2023-05-02T08:42:48;96951.63;;;11.35;100.00
55271;BME280;41132;47.162;9.470;2023-05-02T08:45:14;96965.53;;;11.27;100.00
55271;BME280;41132;47.162;9.470;2023-05-02T08:47:41;96958.56;;;11.36;100.00
55271;BME280;41132;47.162;9.470;2023-05-02T08:50:09;96966.28;;;11.37;100.00
55271;BME280;41132;47.162;9.470;2023-05-02T08:52:36;96962.06;;;11.44;100.00
55271;BME280;41132;47.162;9.470;2023-05-02T08:55:04;96966.97;;;11.39;100.00
55271;BME280;41132;47.162;9.470;2023-05-02T08:57:30;96968.09;;;11.55;100.00
55271;BME280;41132;47.162;9.470;2023-05-02T08:59:56;96967.72;;;11.67;100.00
55271;BME280;41132;47.162;9.470;2023-05-02T09:02:39;96972.91;;;11.77;100.00
55271;BME280;41132;47.162;9.470;2023-05-02T09:05:10;96967.50;;;11.79;100.00
55271;BME280;41132;47.162;9.470;2023-05-02T09:07:44;96966.44;;;11.89;100.00
55271;BME280;41132;47.162;9.470;2023-05-02T09:10:11;96971.31;;;11.84;100.00
55271;BME280;41132;47.162;9.470;2023-05-02T09:12:37;96970.78;;;11.81;100.00
55271;BME280;41132;47.162;9.470;2023-05-02T09:15:21;96967.56;;;11.87;100.00
55271;BME280;41132;47.162;9.470;2023-05-02T09:17:47;96972.47;;;12.00;100.00
55271;BME280;41132;47.162;9.470;2023-05-02T09:20:14;96957.28;;;11.94;100.00
55271;BME280;41132;47.162;9.470;2023-05-02T09:22:51;96980.28;;;11.91;100.00
55271;BME280;41132;47.162;9.470;2023-05-02T09:25:18;96981.09;;;11.92;100.00
55271;BME280;41132;47.162;9.470;2023-05-02T09:27:55;96962.41;;;11.95;100.00
55271;BME280;41132;47.162;9.470;2023-05-02T09:30:25;96971.47;;;12.01;100.00
55271;BME280;41132;47.162;9.470;2023-05-02T09:32:51;96977.22;;;12.22;100.00
55271;BME280;41132;47.162;9.470;2023-05-02T09:35:19;96981.38;;;12.07;100.00
55271;BME280;41132;47.162;9.470;2023-05-02T09:37:57;96977.47;;;12.11;100.00
55271;BME280;41132;47.162;9.470;2023-05-02T09:40:24;96987.75;;;12.22;100.00
55271;BME280;41132;47.162;9.470;2023-05-02T09:42:50;96987.81;;;12.12;100.00
55271;BME280;41132;47.162;9.470;2023-05-02T09:45:21;96990.84;;;12.18;100.00
55271;BME280;41132;47.162;9.470;2023-05-02T09:47:47;96981.50;;;12.23;100.00
55271;BME280;41132;47.162;9.470;2023-05-02T09:55:27;96977.47;;;12.11;100.00
55271;BME280;41132;47.162;9.470;2023-05-02T09:57:52;96992.59;;;12.35;100.00
55271;BME280;41132;47.162;9.470;2023-05-02T10:00:18;96983.38;;;12.31;100.00
55271;BME280;41132;47.162;9.470;2023-05-02T10:02:45;96982.91;;;12.36;100.00
55271;BME280;41132;47.162;9.470;2023-05-02T10:05:14;96995.81;;;12.47;100.00
55271;BME280;41132;47.162;9.470;2023-05-02T10:07:42;96969.97;;;12.42;100.00
55271;BME280;41132;47.162;9.470;2023-05-02T10:10:13;96992.66;;;12.43;100.00
55271;BME280;41132;47.162;9.470;2023-05-02T10:12:41;96978.88;;;12.49;100.00
55271;BME280;41132;47.162;9.470;2023-05-02T10:15:08;96981.13;;;12.44;100.00
55271;BME280;41132;47.162;9.470;2023-05-02T10:17:45;96984.63;;;12.79;100.00
55271;BME280;41132;47.162;9.470;2023-05-02T10:20:15;96984.91;;;12.68;100.00
55271;BME280;41132;47.162;9.470;2023-05-02T10:22:44;97002.88;;;12.72;100.00
55271;BME280;41132;47.162;9.470;2023-05-02T10:25:10;97002.81;;;12.64;100.00
55271;BME280;41132;47.162;9.470;2023-05-02T10:27:37;97004.75;;;12.62;100.00
55271;BME280;41132;47.162;9.470;2023-05-02T10:30:04;97008.06;;;12.64;100.00
55271;BME280;41132;47.162;9.470;2023-05-02T10:32:32;97009.28;;;12.78;100.00
55271;BME280;41132;47.162;9.470;2023-05-02T10:35:03;97000.56;;;12.78;100.00
55271;BME280;41132;47.162;9.470;2023-05-02T10:37:29;97005.63;;;12.71;100.00
55271;BME280;41132;47.162;9.470;2023-05-02T10:39:58;97005.63;;;12.71;100.00
55271;BME280;41132;47.162;9.470;2023-05-02T10:42:24;97003.25;;;12.86;100.00
55271;BME280;41132;47.162;9.470;2023-05-02T10:44:51;97004.69;;;12.72;100.00
55271;BME280;41132;47.162;9.470;2023-05-02T10:47:17;97004.91;;;12.87;100.00
55271;BME280;41132;47.162;9.470;2023-05-02T10:52:44;97006.78;;;12.68;100.00
55271;BME280;41132;47.162;9.470;2023-05-02T10:55:20;97004.28;;;12.67;100.00
55271;BME280;41132;47.162;9.470;2023-05-02T11:00:25;96991.19;;;12.75;100.00
55271;BME280;41132;47.162;9.470;2023-05-02T11:02:51;96994.03;;;12.82;100.00
55271;BME280;41132;47.162;9.470;2023-05-02T11:05:16;96984.88;;;13.02;100.00
55271;BME280;41132;47.162;9.470;2023-05-02T11:07:42;96991.16;;;13.09;100.00
55271;BME280;41132;47.162;9.470;2023-05-02T11:12:50;96972.66;;;12.93;100.00
55271;BME280;41132;47.162;9.470;2023-05-02T11:18:07;96987.72;;;13.09;100.00
55271;BME280;41132;47.162;9.470;2023-05-02T11:20:33;97002.91;;;13.23;100.00
55271;BME280;41132;47.162;9.470;2023-05-02T11:25:46;96985.84;;;13.44;100.00
55271;BME280;41132;47.162;9.470;2023-05-02T11:33:58;96992.34;;;13.74;100.00
55271;BME280;41132;47.162;9.470;2023-05-02T11:36:31;96986.72;;;13.69;100.00
55271;BME280;41132;47.162;9.470;2023-05-02T11:39:03;96979.28;;;13.64;100.00
55271;BME280;41132;47.162;9.470;2023-05-02T11:41:41;96985.06;;;13.51;100.00
55271;BME280;41132;47.162;9.470;2023-05-02T11:44:07;96989.63;;;13.41;100.00
55271;BME280;41132;47.162;9.470;2023-05-02T11:46:35;96984.69;;;13.46;100.00
55271;BME280;41132;47.162;9.470;2023-05-02T11:49:01;96984.31;;;13.25;100.00
55271;BME280;41132;47.162;9.470;2023-05-02T11:51:27;96970.69;;;13.38;100.00
55271;BME280;41132;47.162;9.470;2023-05-02T11:53:52;96979.03;;;13.25;100.00
55271;BME280;41132;47.162;9.470;2023-05-02T12:08:17;96986.69;;;13.52;100.00
55271;BME280;41132;47.162;9.470;2023-05-02T12:10:43;96988.50;;;13.60;100.00
55271;BME280;41132;47.162;9.470;2023-05-02T12:13:10;96982.75;;;13.65;100.00
55271;BME280;41132;47.162;9.470;2023-05-02T12:15:35;96981.41;;;13.52;100.00
55271;BME280;41132;47.162;9.470;2023-05-02T12:18:01;96992.69;;;13.79;100.00
55271;BME280;41132;47.162;9.470;2023-05-02T12:20:27;96991.34;;;13.91;100.00
55271;BME280;41132;47.162;9.470;2023-05-02T12:22:52;96996.31;;;14.03;100.00
55271;BME280;41132;47.162;9.470;2023-05-02T12:25:18;96994.31;;;13.96;100.00
55271;BME280;41132;47.162;9.470;2023-05-02T12:27:58;96986.06;;;14.08;100.00
55271;BME280;41132;47.162;9.470;2023-05-02T12:30:30;96966.94;;;13.97;100.00
55271;BME280;41132;47.162;9.470;2023-05-02T12:32:57;96988.22;;;14.04;100.00
55271;BME280;41132;47.162;9.470;2023-05-02T12:35:23;96990.81;;;14.37;100.00
55271;BME280;41132;47.162;9.470;2023-05-02T12:37:48;96988.19;;;14.45;100.00
55271;BME280;41132;47.162;9.470;2023-05-02T12:40:15;96990.03;;;14.20;100.00
55271;BME280;41132;47.162;9.470;2023-05-02T12:42:57;96985.22;;;14.24;100.00
55271;BME280;41132;47.162;9.470;2023-05-02T12:45:22;96989.50;;;14.33;100.00
55271;BME280;41132;47.162;9.470;2023-05-02T12:47:48;96995.66;;;14.09;96.34
55271;BME280;41132;47.162;9.470;2023-05-02T12:50:15;96966.09;;;14.30;100.00
55271;BME280;41132;47.162;9.470;2023-05-02T12:52:51;96980.41;;;14.52;100.00
55271;BME280;41132;47.162;9.470;2023-05-02T12:55:25;96972.19;;;14.47;97.46
55271;BME280;41132;47.162;9.470;2023-05-02T12:58:05;96973.16;;;14.54;100.00
55271;BME280;41132;47.162;9.470;2023-05-02T13:00:32;96966.91;;;14.30;97.07
55271;BME280;41132;47.162;9.470;2023-05-02T13:02:58;96966.91;;;14.38;99.93
55271;BME280;41132;47.162;9.470;2023-05-02T13:05:24;96969.53;;;14.30;97.27
55271;BME280;41132;47.162;9.470;2023-05-02T13:07:50;96971.88;;;14.33;99.02
55271;BME280;41132;47.162;9.470;2023-05-02T13:10:15;96960.34;;;14.18;95.83
55271;BME280;41132;47.162;9.470;2023-05-02T13:12:43;96958.50;;;14.18;91.33
55271;BME280;41132;47.162;9.470;2023-05-02T13:15:08;96963.25;;;14.48;99.58
55271;BME280;41132;47.162;9.470;2023-05-02T13:17:34;96959.44;;;14.67;98.51
55271;BME280;41132;47.162;9.470;2023-05-02T13:20:00;96959.56;;;14.73;97.82
55271;BME280;41132;47.162;9.470;2023-05-02T13:22:26;96949.28;;;14.87;96.49
55271;BME280;41132;47.162;9.470;2023-05-02T13:24:52;96939.44;;;14.72;93.31
55271;BME280;41132;47.162;9.470;2023-05-02T13:27:18;96943.09;;;14.63;91.06
55271;BME280;41132;47.162;9.470;2023-05-02T13:29:44;96941.78;;;14.67;93.37
55271;BME280;41132;47.162;9.470;2023-05-02T13:32:10;96931.53;;;14.72;90.55
55271;BME280;41132;47.162;9.470;2023-05-02T13:34:36;96931.69;;;14.71;86.12
55271;BME280;41132;47.162;9.470;2023-05-02T13:37:01;96913.91;;;14.56;87.55
55271;BME280;41132;47.162;9.470;2023-05-02T13:39:27;96923.91;;;14.77;92.48
55271;BME280;41132;47.162;9.470;2023-05-02T13:41:53;96935.78;;;14.81;85.24
55271;BME280;41132;47.162;9.470;2023-05-02T13:44:18;96923.97;;;14.61;83.34
55271;BME280;41132;47.162;9.470;2023-05-02T13:46:43;96924.78;;;14.61;81.98
55271;BME280;41132;47.162;9.470;2023-05-02T13:49:09;96915.88;;;14.63;81.60
55271;BME280;41132;47.162;9.470;2023-05-02T13:51:34;96906.78;;;14.65;81.62
55271;BME280;41132;47.162;9.470;2023-05-02T13:54:00;96900.03;;;14.63;79.11
55271;BME280;41132;47.162;9.470;2023-05-02T13:56:26;96914.66;;;14.73;76.67
55271;BME280;41132;47.162;9.470;2023-05-02T13:58:52;96904.97;;;14.66;74.97
55271;BME280;41132;47.162;9.470;2023-05-02T14:01:17;96906.50;;;14.91;81.76
55271;BME280;41132;47.162;9.470;2023-05-02T14:03:43;96899.69;;;14.97;78.52
55271;BME280;41132;47.162;9.470;2023-05-02T14:06:09;96910.28;;;14.97;77.78
55271;BME280;41132;47.162;9.470;2023-05-02T14:08:34;96895.34;;;14.73;77.24
55271;BME280;41132;47.162;9.470;2023-05-02T14:10:59;96904.44;;;14.70;74.57
55271;BME280;41132;47.162;9.470;2023-05-02T14:13:25;96892.94;;;14.55;72.70
55271;BME280;41132;47.162;9.470;2023-05-02T14:15:52;96906.13;;;14.63;72.68
55271;BME280;41132;47.162;9.470;2023-05-02T14:18:17;96898.22;;;14.63;71.98